SHT9B EGLL-EGPH
Flight info
| Callsign | SHT9B |
|---|---|
| Flight time | 0h 55m |
| Altitude | 32000 |
| Route | ULTIB T420 TNT UN57 POL UN601 RIBEL DCT INPIP |
| Aircraft | A20N/M-SDE2E3FGHIRWXY/LB1 |
Departure
| Time | 2026-04-25 20:01 |
|---|---|
| Airport | London Heathrow Airport (EGLL) |
Arrival
| Time | 2026-04-25 20:56 |
|---|---|
| Airport | Edinburgh Airport (EGPH) |
| Time | Latitude | Longitude | Altitude | Speed | Heading |
|---|---|---|---|---|---|
| 2026-04-25 19:22 | 51.47411 | -0.48829 | 91 ft | 0 kts | 180° |
| 2026-04-25 19:44 | 51.47417 | -0.48829 | 87 ft | 2 kts | 180° |
| 2026-04-25 19:45 | 51.47432 | -0.48829 | 89 ft | 2 kts | 180° |
| 2026-04-25 19:45 | 51.47447 | -0.48829 | 87 ft | 2 kts | 180° |
| 2026-04-25 19:45 | 51.47462 | -0.48829 | 87 ft | 2 kts | 180° |
| 2026-04-25 19:45 | 51.47471 | -0.48831 | 87 ft | 2 kts | 165° |
| 2026-04-25 19:46 | 51.47484 | -0.48841 | 90 ft | 2 kts | 112° |
| 2026-04-25 19:46 | 51.47486 | -0.48851 | 89 ft | 0 kts | 99° |
| 2026-04-25 19:50 | 51.47484 | -0.48817 | 90 ft | 6 kts | 95° |
| 2026-04-25 19:50 | 51.47483 | -0.48732 | 90 ft | 9 kts | 89° |
| 2026-04-25 19:50 | 51.47485 | -0.48628 | 91 ft | 10 kts | 88° |
| 2026-04-25 19:51 | 51.47486 | -0.48509 | 91 ft | 10 kts | 108° |
| 2026-04-25 19:51 | 51.47422 | -0.48474 | 86 ft | 12 kts | 176° |
| 2026-04-25 19:51 | 51.47327 | -0.48476 | 86 ft | 15 kts | 180° |
| 2026-04-25 19:51 | 51.47214 | -0.48474 | 87 ft | 17 kts | 179° |
| 2026-04-25 19:52 | 51.47115 | -0.48473 | 88 ft | 9 kts | 179° |
| 2026-04-25 19:52 | 51.47045 | -0.48472 | 88 ft | 12 kts | 180° |
| 2026-04-25 19:52 | 51.46950 | -0.48471 | 88 ft | 15 kts | 179° |
| 2026-04-25 19:52 | 51.46901 | -0.48469 | 88 ft | 0 kts | 179° |
| 2026-04-25 19:53 | 51.46898 | -0.48469 | 87 ft | 2 kts | 179° |
| 2026-04-25 19:53 | 51.46872 | -0.48469 | 87 ft | 5 kts | 180° |
| 2026-04-25 19:53 | 51.46846 | -0.48470 | 87 ft | 0 kts | 181° |
| 2026-04-25 19:55 | 51.46845 | -0.48470 | 87 ft | 1 kts | 181° |
| 2026-04-25 19:55 | 51.46820 | -0.48471 | 87 ft | 6 kts | 181° |
| 2026-04-25 19:56 | 51.46766 | -0.48472 | 90 ft | 10 kts | 180° |
| 2026-04-25 19:56 | 51.46690 | -0.48470 | 88 ft | 12 kts | 179° |
| 2026-04-25 19:56 | 51.46618 | -0.48468 | 89 ft | 9 kts | 178° |
| 2026-04-25 19:56 | 51.46601 | -0.48468 | 89 ft | 0 kts | 179° |
| 2026-04-25 19:57 | 51.46600 | -0.48468 | 89 ft | 1 kts | 180° |
| 2026-04-25 19:57 | 51.46581 | -0.48468 | 89 ft | 5 kts | 181° |
| 2026-04-25 19:57 | 51.46535 | -0.48469 | 88 ft | 9 kts | 181° |
| 2026-04-25 19:57 | 51.46479 | -0.48412 | 88 ft | 10 kts | 101° |
| 2026-04-25 19:58 | 51.46479 | -0.48397 | 87 ft | 0 kts | 94° |
| 2026-04-25 20:00 | 51.46479 | -0.48396 | 87 ft | 1 kts | 94° |
| 2026-04-25 20:00 | 51.46478 | -0.47886 | 83 ft | 88 kts | 90° |
| 2026-04-25 20:00 | 51.46478 | -0.46477 | 172 ft | 150 kts | 91° |
| 2026-04-25 20:01 | 51.46484 | -0.42957 | 1656 ft | 170 kts | 89° |
| 2026-04-25 20:01 | 51.46627 | -0.41007 | 2368 ft | 189 kts | 68° |
| 2026-04-25 20:01 | 51.47326 | -0.39084 | 3039 ft | 213 kts | 54° |
| 2026-04-25 20:02 | 51.48279 | -0.37126 | 3653 ft | 235 kts | 50° |
| 2026-04-25 20:02 | 51.49364 | -0.35041 | 4301 ft | 254 kts | 50° |
| 2026-04-25 20:02 | 51.50533 | -0.32826 | 4955 ft | 263 kts | 49° |
| 2026-04-25 20:02 | 51.51705 | -0.30499 | 5602 ft | 266 kts | 54° |
| 2026-04-25 20:03 | 51.52639 | -0.27906 | 5952 ft | 271 kts | 65° |
| 2026-04-25 20:03 | 51.53312 | -0.25075 | 5995 ft | 271 kts | 69° |
| 2026-04-25 20:03 | 51.53942 | -0.22243 | 5993 ft | 271 kts | 70° |
| 2026-04-25 20:03 | 51.54641 | -0.19456 | 5988 ft | 269 kts | 57° |
| 2026-04-25 20:04 | 51.55943 | -0.17355 | 5995 ft | 268 kts | 29° |
| 2026-04-25 20:04 | 51.57707 | -0.16486 | 6041 ft | 267 kts | 1° |
| 2026-04-25 20:04 | 51.59514 | -0.17068 | 6038 ft | 268 kts | 333° |
| 2026-04-25 20:04 | 51.60938 | -0.18968 | 6037 ft | 270 kts | 306° |
| 2026-04-25 20:05 | 51.61964 | -0.21514 | 6046 ft | 271 kts | 303° |
| 2026-04-25 20:05 | 51.63110 | -0.23902 | 6050 ft | 270 kts | 313° |
| 2026-04-25 20:05 | 51.64471 | -0.25982 | 6048 ft | 270 kts | 321° |
| 2026-04-25 20:05 | 51.65969 | -0.27785 | 6051 ft | 269 kts | 326° |
| 2026-04-25 20:06 | 51.67544 | -0.29423 | 6049 ft | 269 kts | 329° |
| 2026-04-25 20:06 | 51.69152 | -0.30984 | 6048 ft | 269 kts | 330° |
| 2026-04-25 20:06 | 51.70697 | -0.32456 | 6048 ft | 269 kts | 330° |
| 2026-04-25 20:06 | 51.72311 | -0.33991 | 6049 ft | 269 kts | 330° |
| 2026-04-25 20:07 | 51.73923 | -0.35531 | 6048 ft | 269 kts | 329° |
| 2026-04-25 20:07 | 51.75534 | -0.37079 | 6066 ft | 270 kts | 329° |
| 2026-04-25 20:07 | 51.77095 | -0.38585 | 6384 ft | 273 kts | 329° |
| 2026-04-25 20:07 | 51.78725 | -0.40161 | 7233 ft | 272 kts | 329° |
| 2026-04-25 20:08 | 51.80356 | -0.41737 | 8232 ft | 275 kts | 329° |
| 2026-04-25 20:08 | 51.82010 | -0.43338 | 9149 ft | 279 kts | 329° |
| 2026-04-25 20:08 | 51.83656 | -0.44932 | 10079 ft | 283 kts | 329° |
| 2026-04-25 20:08 | 51.85359 | -0.46583 | 10952 ft | 286 kts | 329° |
| 2026-04-25 20:09 | 51.87078 | -0.48252 | 11756 ft | 290 kts | 328° |
| 2026-04-25 20:09 | 51.88812 | -0.49937 | 12392 ft | 292 kts | 328° |
| 2026-04-25 20:09 | 51.90472 | -0.51553 | 13070 ft | 294 kts | 328° |
| 2026-04-25 20:09 | 51.92246 | -0.53282 | 13832 ft | 301 kts | 328° |
| 2026-04-25 20:10 | 51.93443 | -0.54450 | 14282 ft | 306 kts | 328° |
| 2026-04-25 20:10 | 51.95920 | -0.56866 | 15161 ft | 315 kts | 328° |
| 2026-04-25 20:10 | 51.97796 | -0.58699 | 15826 ft | 321 kts | 328° |
| 2026-04-25 20:10 | 51.99723 | -0.60583 | 16511 ft | 326 kts | 328° |
| 2026-04-25 20:11 | 52.01680 | -0.62498 | 17214 ft | 331 kts | 328° |
| 2026-04-25 20:11 | 52.03664 | -0.64442 | 17937 ft | 335 kts | 328° |
| 2026-04-25 20:11 | 52.05594 | -0.66334 | 18612 ft | 338 kts | 327° |
| 2026-04-25 20:11 | 52.07625 | -0.68329 | 19183 ft | 344 kts | 327° |
| 2026-04-25 20:12 | 52.09685 | -0.70355 | 19769 ft | 348 kts | 327° |
| 2026-04-25 20:12 | 52.11771 | -0.72409 | 20346 ft | 353 kts | 327° |
| 2026-04-25 20:12 | 52.13886 | -0.74493 | 20876 ft | 359 kts | 327° |
| 2026-04-25 20:12 | 52.14608 | -0.75205 | 21064 ft | 360 kts | 327° |
| 2026-04-25 20:13 | 52.18217 | -0.78771 | 21931 ft | 370 kts | 327° |
| 2026-04-25 20:13 | 52.19713 | -0.80251 | 22288 ft | 373 kts | 327° |
| 2026-04-25 20:13 | 52.21915 | -0.82432 | 22821 ft | 378 kts | 327° |
| 2026-04-25 20:13 | 52.24206 | -0.84702 | 23359 ft | 383 kts | 327° |
| 2026-04-25 20:14 | 52.26499 | -0.86977 | 23781 ft | 390 kts | 327° |
| 2026-04-25 20:14 | 52.28841 | -0.89303 | 24136 ft | 397 kts | 327° |
| 2026-04-25 20:14 | 52.31220 | -0.91667 | 24492 ft | 403 kts | 327° |
| 2026-04-25 20:14 | 52.33634 | -0.94069 | 24851 ft | 409 kts | 327° |
| 2026-04-25 20:15 | 52.36080 | -0.96506 | 25206 ft | 415 kts | 327° |
| 2026-04-25 20:15 | 52.38576 | -0.98995 | 25564 ft | 419 kts | 327° |
| 2026-04-25 20:15 | 52.41062 | -1.01479 | 25945 ft | 424 kts | 327° |
| 2026-04-25 20:15 | 52.43463 | -1.03880 | 26283 ft | 427 kts | 327° |
| 2026-04-25 20:16 | 52.46004 | -1.06426 | 26656 ft | 430 kts | 327° |
| 2026-04-25 20:16 | 52.48567 | -1.08996 | 27047 ft | 433 kts | 327° |
| 2026-04-25 20:16 | 52.51141 | -1.11583 | 27424 ft | 436 kts | 327° |
| 2026-04-25 20:16 | 52.53710 | -1.14171 | 27804 ft | 438 kts | 327° |
| 2026-04-25 20:17 | 52.56311 | -1.16797 | 28140 ft | 441 kts | 327° |
| 2026-04-25 20:17 | 52.58932 | -1.19444 | 28191 ft | 443 kts | 327° |
| 2026-04-25 20:17 | 52.64171 | -1.24739 | 28186 ft | 442 kts | 327° |
| 2026-04-25 20:18 | 52.69391 | -1.30032 | 28182 ft | 443 kts | 327° |
| 2026-04-25 20:18 | 52.74656 | -1.35388 | 28239 ft | 443 kts | 327° |
| 2026-04-25 20:19 | 52.79908 | -1.40750 | 28239 ft | 444 kts | 327° |
| 2026-04-25 20:19 | 52.85132 | -1.46098 | 28238 ft | 444 kts | 327° |
| 2026-04-25 20:20 | 52.90267 | -1.51364 | 28238 ft | 422 kts | 326° |
| 2026-04-25 20:20 | 52.95292 | -1.56540 | 28241 ft | 428 kts | 326° |
| 2026-04-25 20:21 | 53.00313 | -1.61725 | 28242 ft | 427 kts | 326° |
| 2026-04-25 20:21 | 53.05504 | -1.66638 | 28245 ft | 428 kts | 332° |
| 2026-04-25 20:22 | 53.10064 | -1.69892 | 28248 ft | 430 kts | 338° |
| 2026-04-25 20:22 | 53.16626 | -1.73944 | 28250 ft | 431 kts | 338° |
| 2026-04-25 20:23 | 53.22246 | -1.77433 | 28248 ft | 432 kts | 338° |
| 2026-04-25 20:23 | 53.27771 | -1.80879 | 28250 ft | 432 kts | 338° |
| 2026-04-25 20:24 | 53.33401 | -1.84399 | 28249 ft | 433 kts | 338° |
| 2026-04-25 20:24 | 53.39047 | -1.87940 | 28249 ft | 433 kts | 338° |
| 2026-04-25 20:25 | 53.44374 | -1.91288 | 28249 ft | 433 kts | 337° |
| 2026-04-25 20:25 | 53.50052 | -1.94868 | 28252 ft | 434 kts | 337° |
| 2026-04-25 20:26 | 53.55696 | -1.98436 | 28257 ft | 434 kts | 337° |
| 2026-04-25 20:26 | 53.61354 | -2.02023 | 28252 ft | 435 kts | 337° |
| 2026-04-25 20:27 | 53.67015 | -2.05622 | 28266 ft | 435 kts | 337° |
| 2026-04-25 20:27 | 53.72655 | -2.09219 | 28269 ft | 435 kts | 337° |
| 2026-04-25 20:28 | 53.78299 | -2.12917 | 28271 ft | 435 kts | 336° |
| 2026-04-25 20:28 | 53.83906 | -2.16779 | 28270 ft | 435 kts | 336° |
| 2026-04-25 20:29 | 53.89513 | -2.20635 | 28274 ft | 435 kts | 336° |
| 2026-04-25 20:29 | 53.95136 | -2.24498 | 28271 ft | 436 kts | 336° |
| 2026-04-25 20:30 | 54.00753 | -2.28364 | 28263 ft | 435 kts | 336° |
| 2026-04-25 20:30 | 54.06370 | -2.32241 | 28273 ft | 436 kts | 336° |
| 2026-04-25 20:31 | 54.11986 | -2.36124 | 28266 ft | 436 kts | 336° |
| 2026-04-25 20:31 | 54.17611 | -2.40026 | 28264 ft | 433 kts | 336° |
| 2026-04-25 20:32 | 54.23131 | -2.43865 | 28260 ft | 429 kts | 335° |
| 2026-04-25 20:32 | 54.28658 | -2.47724 | 28265 ft | 429 kts | 335° |
| 2026-04-25 20:33 | 54.34189 | -2.51595 | 28260 ft | 429 kts | 335° |
| 2026-04-25 20:33 | 54.38820 | -2.54845 | 28256 ft | 430 kts | 335° |
| 2026-04-25 20:34 | 54.45246 | -2.59367 | 28269 ft | 429 kts | 335° |
| 2026-04-25 20:34 | 54.50776 | -2.63272 | 28256 ft | 430 kts | 335° |
| 2026-04-25 20:35 | 54.56309 | -2.67189 | 28252 ft | 430 kts | 335° |
| 2026-04-25 20:35 | 54.61844 | -2.71120 | 28260 ft | 430 kts | 335° |
| 2026-04-25 20:36 | 54.67371 | -2.75057 | 28264 ft | 431 kts | 335° |
| 2026-04-25 20:36 | 54.72956 | -2.79047 | 28267 ft | 431 kts | 335° |
| 2026-04-25 20:37 | 54.78490 | -2.83012 | 28116 ft | 428 kts | 335° |
| 2026-04-25 20:37 | 54.81199 | -2.84957 | 27680 ft | 426 kts | 335° |
| 2026-04-25 20:37 | 54.83959 | -2.86941 | 27130 ft | 423 kts | 335° |
| 2026-04-25 20:38 | 54.86662 | -2.88888 | 26572 ft | 419 kts | 335° |
| 2026-04-25 20:38 | 54.89259 | -2.91064 | 26296 ft | 410 kts | 330° |
| 2026-04-25 20:38 | 54.91798 | -2.93385 | 26265 ft | 416 kts | 330° |
| 2026-04-25 20:38 | 54.94375 | -2.95712 | 26266 ft | 417 kts | 330° |
| 2026-04-25 20:39 | 54.96948 | -2.98032 | 26268 ft | 416 kts | 330° |
| 2026-04-25 20:39 | 54.99521 | -3.00357 | 26268 ft | 417 kts | 330° |
| 2026-04-25 20:39 | 55.02095 | -3.02692 | 26268 ft | 417 kts | 330° |
| 2026-04-25 20:39 | 55.02929 | -3.03450 | 26268 ft | 417 kts | 330° |
| 2026-04-25 20:40 | 55.07236 | -3.07373 | 26267 ft | 417 kts | 330° |
| 2026-04-25 20:40 | 55.09800 | -3.09713 | 26266 ft | 415 kts | 330° |
| 2026-04-25 20:40 | 55.12316 | -3.12012 | 26170 ft | 402 kts | 330° |
| 2026-04-25 20:40 | 55.14763 | -3.14249 | 25996 ft | 389 kts | 330° |
| 2026-04-25 20:41 | 55.17139 | -3.16427 | 25543 ft | 383 kts | 330° |
| 2026-04-25 20:41 | 55.19489 | -3.18586 | 25011 ft | 381 kts | 330° |
| 2026-04-25 20:41 | 55.21824 | -3.20736 | 24529 ft | 378 kts | 330° |
| 2026-04-25 20:41 | 55.24139 | -3.22869 | 24064 ft | 374 kts | 330° |
| 2026-04-25 20:42 | 55.26436 | -3.24987 | 23552 ft | 372 kts | 330° |
| 2026-04-25 20:42 | 55.28714 | -3.27090 | 23000 ft | 369 kts | 330° |
| 2026-04-25 20:42 | 55.30978 | -3.29184 | 22449 ft | 367 kts | 330° |
| 2026-04-25 20:42 | 55.33227 | -3.31267 | 21915 ft | 364 kts | 330° |
| 2026-04-25 20:43 | 55.35459 | -3.33336 | 21395 ft | 362 kts | 330° |
| 2026-04-25 20:43 | 55.37805 | -3.34884 | 20976 ft | 360 kts | 348° |
| 2026-04-25 20:43 | 55.40275 | -3.34986 | 20723 ft | 355 kts | 7° |
| 2026-04-25 20:43 | 55.42636 | -3.33770 | 20151 ft | 355 kts | 19° |
| 2026-04-25 20:44 | 55.44935 | -3.32215 | 19554 ft | 353 kts | 19° |
| 2026-04-25 20:44 | 55.47213 | -3.30647 | 18981 ft | 350 kts | 19° |
| 2026-04-25 20:44 | 55.49439 | -3.29265 | 18418 ft | 345 kts | 9° |
| 2026-04-25 20:44 | 55.51847 | -3.29166 | 17843 ft | 334 kts | 346° |
| 2026-04-25 20:45 | 55.53984 | -3.30570 | 17285 ft | 326 kts | 330° |
| 2026-04-25 20:45 | 55.55975 | -3.32451 | 16680 ft | 324 kts | 329° |
| 2026-04-25 20:45 | 55.57950 | -3.34347 | 16107 ft | 322 kts | 329° |
| 2026-04-25 20:45 | 55.59906 | -3.36234 | 15560 ft | 320 kts | 329° |
| 2026-04-25 20:46 | 55.61852 | -3.38116 | 15027 ft | 318 kts | 329° |
| 2026-04-25 20:46 | 55.63732 | -3.39937 | 14636 ft | 311 kts | 329° |
| 2026-04-25 20:46 | 55.65602 | -3.41754 | 14152 ft | 309 kts | 329° |
| 2026-04-25 20:46 | 55.67483 | -3.43585 | 13584 ft | 307 kts | 329° |
| 2026-04-25 20:47 | 55.69343 | -3.45413 | 13015 ft | 303 kts | 326° |
| 2026-04-25 20:47 | 55.70848 | -3.47931 | 12382 ft | 296 kts | 300° |
| 2026-04-25 20:47 | 55.71721 | -3.51198 | 11743 ft | 293 kts | 289° |
| 2026-04-25 20:47 | 55.72462 | -3.54542 | 11165 ft | 290 kts | 289° |
| 2026-04-25 20:48 | 55.73194 | -3.57865 | 10606 ft | 288 kts | 289° |
| 2026-04-25 20:48 | 55.73916 | -3.61131 | 10246 ft | 278 kts | 289° |
| 2026-04-25 20:48 | 55.74622 | -3.64326 | 9531 ft | 281 kts | 289° |
| 2026-04-25 20:48 | 55.75326 | -3.67537 | 9070 ft | 274 kts | 289° |
| 2026-04-25 20:49 | 55.76003 | -3.70622 | 8751 ft | 263 kts | 289° |
| 2026-04-25 20:49 | 55.76655 | -3.73584 | 8439 ft | 252 kts | 289° |
| 2026-04-25 20:49 | 55.77549 | -3.76177 | 8137 ft | 245 kts | 316° |
| 2026-04-25 20:49 | 55.78958 | -3.77561 | 7841 ft | 239 kts | 346° |
| 2026-04-25 20:50 | 55.80056 | -3.77674 | 7635 ft | 242 kts | 7° |
| 2026-04-25 20:50 | 55.81591 | -3.76534 | 7317 ft | 242 kts | 41° |
| 2026-04-25 20:50 | 55.82590 | -3.74144 | 6931 ft | 241 kts | 62° |
| 2026-04-25 20:50 | 55.83355 | -3.71583 | 6482 ft | 239 kts | 62° |
| 2026-04-25 20:51 | 55.84141 | -3.69110 | 6340 ft | 219 kts | 59° |
| 2026-04-25 20:51 | 55.84897 | -3.66892 | 6178 ft | 201 kts | 59° |
| 2026-04-25 20:51 | 55.85593 | -3.64856 | 5994 ft | 186 kts | 58° |
| 2026-04-25 20:51 | 55.86254 | -3.62921 | 5630 ft | 182 kts | 58° |
| 2026-04-25 20:52 | 55.86904 | -3.61020 | 5274 ft | 178 kts | 58° |
| 2026-04-25 20:52 | 55.87340 | -3.59742 | 4996 ft | 180 kts | 59° |
| 2026-04-25 20:52 | 55.88206 | -3.57206 | 4466 ft | 177 kts | 59° |
| 2026-04-25 20:52 | 55.88841 | -3.55343 | 4107 ft | 175 kts | 59° |
| 2026-04-25 20:53 | 55.89469 | -3.53500 | 3676 ft | 176 kts | 59° |
| 2026-04-25 20:53 | 55.90126 | -3.51611 | 3077 ft | 185 kts | 59° |
| 2026-04-25 20:53 | 55.90837 | -3.49658 | 2530 ft | 186 kts | 59° |
| 2026-04-25 20:53 | 55.91520 | -3.47763 | 1960 ft | 178 kts | 62° |
| 2026-04-25 20:54 | 55.92109 | -3.45873 | 1381 ft | 172 kts | 64° |
| 2026-04-25 20:54 | 55.92678 | -3.44106 | 863 ft | 163 kts | 59° |
| 2026-04-25 20:54 | 55.92883 | -3.43530 | 699 ft | 160 kts | 59° |
| 2026-04-25 20:54 | 55.93043 | -3.43049 | 714 ft | 149 kts | 60° |
| 2026-04-25 20:55 | 55.93564 | -3.41483 | 508 ft | 138 kts | 59° |
| 2026-04-25 20:55 | 55.94033 | -3.40088 | 303 ft | 126 kts | 58° |
| 2026-04-25 20:55 | 55.94462 | -3.38828 | 155 ft | 117 kts | 58° |
| 2026-04-25 20:55 | 55.94870 | -3.37627 | 108 ft | 93 kts | 59° |
| 2026-04-25 20:56 | 55.95110 | -3.36923 | 108 ft | 51 kts | 59° |
| 2026-04-25 20:56 | 55.95234 | -3.36558 | 105 ft | 20 kts | 58° |
| 2026-04-25 20:56 | 55.95223 | -3.36388 | 106 ft | 13 kts | 141° |
| 2026-04-25 20:56 | 55.95182 | -3.36340 | 106 ft | 0 kts | 148° |
| 2026-04-25 20:57 | 55.95172 | -3.36329 | 107 ft | 3 kts | 148° |
| 2026-04-25 20:57 | 55.95141 | -3.36302 | 107 ft | 6 kts | 166° |
| 2026-04-25 20:57 | 55.95135 | -3.36306 | 107 ft | 1 kts | 200° |
| 2026-04-25 20:57 | 55.95123 | -3.36325 | 107 ft | 4 kts | 229° |
| 2026-04-25 20:58 | 55.95098 | -3.36373 | 107 ft | 7 kts | 217° |
| 2026-04-25 20:58 | 55.95047 | -3.36390 | 107 ft | 9 kts | 177° |
| 2026-04-25 20:58 | 55.94996 | -3.36419 | 105 ft | 7 kts | 181° |
| 2026-04-25 20:58 | 55.94958 | -3.36378 | 107 ft | 7 kts | 148° |
| 2026-04-25 20:59 | 55.94943 | -3.36362 | 107 ft | 0 kts | 147° |
| 2026-04-25 20:59 | 55.94937 | -3.36354 | 107 ft | 0 kts | 147° |